sensor_id;sensor_type;location;lat;lon;timestamp;pressure;altitude;pressure_sealevel;temperature;humidity
48563;BME280;34981;49.104;11.396;2022-10-01T00:01:02;97772.59;;;6.64;96.75
48563;BME280;34981;49.104;11.396;2022-10-01T00:03:30;97776.28;;;6.63;96.75
48563;BME280;34981;49.104;11.396;2022-10-01T00:06:01;97779.78;;;6.63;96.76
48563;BME280;34981;49.104;11.396;2022-10-01T00:08:30;97775.47;;;6.62;96.75
48563;BME280;34981;49.104;11.396;2022-10-01T00:10:57;97776.50;;;6.61;96.78
48563;BME280;34981;49.104;11.396;2022-10-01T00:13:27;97772.34;;;6.59;96.78
48563;BME280;34981;49.104;11.396;2022-10-01T00:15:56;97769.84;;;6.51;96.78
48563;BME280;34981;49.104;11.396;2022-10-01T00:18:23;97774.38;;;6.50;96.79
48563;BME280;34981;49.104;11.396;2022-10-01T00:20:50;97773.16;;;6.53;96.84
48563;BME280;34981;49.104;11.396;2022-10-01T00:23:17;97775.19;;;6.51;96.89
48563;BME280;34981;49.104;11.396;2022-10-01T00:25:45;97769.84;;;6.44;96.90
48563;BME280;34981;49.104;11.396;2022-10-01T00:28:12;97773.50;;;6.37;96.89
48563;BME280;34981;49.104;11.396;2022-10-01T00:30:45;97775.59;;;6.41;96.94
48563;BME280;34981;49.104;11.396;2022-10-01T00:33:12;97778.44;;;6.40;96.97
48563;BME280;34981;49.104;11.396;2022-10-01T00:35:39;97787.09;;;6.42;97.01
48563;BME280;34981;49.104;11.396;2022-10-01T00:38:06;97789.56;;;6.43;97.03
48563;BME280;34981;49.104;11.396;2022-10-01T00:40:34;97795.72;;;6.44;97.06
48563;BME280;34981;49.104;11.396;2022-10-01T00:43:17;97790.78;;;6.41;97.10
48563;BME280;34981;49.104;11.396;2022-10-01T00:45:44;97795.13;;;6.42;97.13
48563;BME280;34981;49.104;11.396;2022-10-01T00:48:12;97801.06;;;6.44;97.17
48563;BME280;34981;49.104;11.396;2022-10-01T00:50:39;97796.97;;;6.41;97.22
48563;BME280;34981;49.104;11.396;2022-10-01T00:53:07;97809.31;;;6.42;97.26
48563;BME280;34981;49.104;11.396;2022-10-01T00:55:42;97815.47;;;6.43;97.29
48563;BME280;34981;49.104;11.396;2022-10-01T00:58:11;97820.81;;;6.43;97.31
48563;BME280;34981;49.104;11.396;2022-10-01T01:00:39;97823.69;;;6.48;97.37
48563;BME280;34981;49.104;11.396;2022-10-01T01:03:08;97825.34;;;6.49;97.42
48563;BME280;34981;49.104;11.396;2022-10-01T01:05:35;97835.03;;;6.50;97.44
48563;BME280;34981;49.104;11.396;2022-10-01T01:08:02;97848.81;;;6.53;97.47
48563;BME280;34981;49.104;11.396;2022-10-01T01:13:23;97859.13;;;6.63;97.59
48563;BME280;34981;49.104;11.396;2022-10-01T01:15:58;97864.47;;;6.63;97.60
48563;BME280;34981;49.104;11.396;2022-10-01T01:18:32;97870.22;;;6.60;97.62
48563;BME280;34981;49.104;11.396;2022-10-01T01:21:12;97883.38;;;6.61;97.66
48563;BME280;34981;49.104;11.396;2022-10-01T01:23:46;97887.50;;;6.64;97.68
48563;BME280;34981;49.104;11.396;2022-10-01T01:29:01;97906.59;;;6.61;97.75
48563;BME280;34981;49.104;11.396;2022-10-01T01:31:31;97916.66;;;6.59;97.76
48563;BME280;34981;49.104;11.396;2022-10-01T01:34:00;97922.41;;;6.56;97.79
48563;BME280;34981;49.104;11.396;2022-10-01T01:36:30;97940.84;;;6.51;97.80
48563;BME280;34981;49.104;11.396;2022-10-01T01:39:02;97945.81;;;6.54;97.84
48563;BME280;34981;49.104;11.396;2022-10-01T01:41:32;97946.63;;;6.54;97.88
48563;BME280;34981;49.104;11.396;2022-10-01T01:44:02;97963.69;;;6.53;97.93
48563;BME280;34981;49.104;11.396;2022-10-01T01:46:32;97971.91;;;6.52;97.97
48563;BME280;34981;49.104;11.396;2022-10-01T01:49:00;97986.09;;;6.52;98.01
48563;BME280;34981;49.104;11.396;2022-10-01T01:51:31;97998.63;;;6.52;98.03
48563;BME280;34981;49.104;11.396;2022-10-01T01:54:02;98016.47;;;6.51;98.04
48563;BME280;34981;49.104;11.396;2022-10-01T01:56:29;98024.06;;;6.48;98.07
48563;BME280;34981;49.104;11.396;2022-10-01T01:58:57;98036.78;;;6.46;98.10
48563;BME280;34981;49.104;11.396;2022-10-01T02:01:38;98050.78;;;6.48;98.13
48563;BME280;34981;49.104;11.396;2022-10-01T02:09:20;98090.41;;;6.44;98.20
48563;BME280;34981;49.104;11.396;2022-10-01T02:11:56;98096.75;;;6.43;98.21
48563;BME280;34981;49.104;11.396;2022-10-01T02:14:33;98110.94;;;6.44;98.24
48563;BME280;34981;49.104;11.396;2022-10-01T02:19:57;98114.56;;;6.36;98.26
48563;BME280;34981;49.104;11.396;2022-10-01T02:22:31;98126.09;;;6.37;98.27
48563;BME280;34981;49.104;11.396;2022-10-01T02:25:00;98137.59;;;6.37;98.30
48563;BME280;34981;49.104;11.396;2022-10-01T02:27:31;98139.25;;;6.38;98.32
48563;BME280;34981;49.104;11.396;2022-10-01T02:30:01;98142.50;;;6.34;98.31
48563;BME280;34981;49.104;11.396;2022-10-01T02:32:29;98141.69;;;6.33;98.34
48563;BME280;34981;49.104;11.396;2022-10-01T02:34:57;98156.47;;;6.36;98.35
48563;BME280;34981;49.104;11.396;2022-10-01T02:37:25;98154.47;;;6.38;98.35
48563;BME280;34981;49.104;11.396;2022-10-01T02:39:53;98153.00;;;6.35;98.35
48563;BME280;34981;49.104;11.396;2022-10-01T02:42:22;98151.91;;;6.30;98.35
48563;BME280;34981;49.104;11.396;2022-10-01T02:44:51;98157.25;;;6.30;98.37
48563;BME280;34981;49.104;11.396;2022-10-01T02:47:22;98168.56;;;6.32;98.37
48563;BME280;34981;49.104;11.396;2022-10-01T02:49:51;98162.88;;;6.35;98.39
48563;BME280;34981;49.104;11.396;2022-10-01T02:52:21;98168.84;;;6.37;98.39
48563;BME280;34981;49.104;11.396;2022-10-01T02:57:55;98173.81;;;6.40;98.44
48563;BME280;34981;49.104;11.396;2022-10-01T03:00:22;98184.50;;;6.40;98.44
48563;BME280;34981;49.104;11.396;2022-10-01T03:02:49;98186.16;;;6.41;98.45
48563;BME280;34981;49.104;11.396;2022-10-01T03:05:17;98185.41;;;6.47;98.47
48563;BME280;34981;49.104;11.396;2022-10-01T03:07:44;98190.91;;;6.45;98.49
48563;BME280;34981;49.104;11.396;2022-10-01T03:10:11;98201.06;;;6.50;98.50
48563;BME280;34981;49.104;11.396;2022-10-01T03:12:42;98211.34;;;6.53;98.53
48563;BME280;34981;49.104;11.396;2022-10-01T03:15:13;98209.31;;;6.55;98.53
48563;BME280;34981;49.104;11.396;2022-10-01T03:17:40;98209.16;;;6.56;98.55
48563;BME280;34981;49.104;11.396;2022-10-01T03:20:08;98225.19;;;6.56;98.55
48563;BME280;34981;49.104;11.396;2022-10-01T03:22:35;98222.50;;;6.56;98.55
48563;BME280;34981;49.104;11.396;2022-10-01T03:25:02;98234.03;;;6.57;98.56
48563;BME280;34981;49.104;11.396;2022-10-01T03:27:30;98231.34;;;6.57;98.55
48563;BME280;34981;49.104;11.396;2022-10-01T03:29:57;98237.72;;;6.56;98.57
48563;BME280;34981;49.104;11.396;2022-10-01T03:32:24;98242.03;;;6.57;98.59
48563;BME280;34981;49.104;11.396;2022-10-01T03:34:51;98242.03;;;6.57;98.60
48563;BME280;34981;49.104;11.396;2022-10-01T03:37:18;98253.34;;;6.59;98.59
48563;BME280;34981;49.104;11.396;2022-10-01T03:39:45;98264.03;;;6.59;98.60
48563;BME280;34981;49.104;11.396;2022-10-01T03:42:12;98258.69;;;6.59;98.60
48563;BME280;34981;49.104;11.396;2022-10-01T03:44:41;98253.34;;;6.59;98.60
48563;BME280;34981;49.104;11.396;2022-10-01T03:47:09;98262.38;;;6.58;98.61
48563;BME280;34981;49.104;11.396;2022-10-01T03:49:36;98258.69;;;6.59;98.61
48563;BME280;34981;49.104;11.396;2022-10-01T03:52:03;98255.41;;;6.57;98.62
48563;BME280;34981;49.104;11.396;2022-10-01T03:54:31;98268.94;;;6.55;98.63
48563;BME280;34981;49.104;11.396;2022-10-01T03:56:58;98263.78;;;6.54;98.65
48563;BME280;34981;49.104;11.396;2022-10-01T03:59:25;98263.78;;;6.54;98.65
48563;BME280;34981;49.104;11.396;2022-10-01T04:01:55;98272.63;;;6.54;98.64
48563;BME280;34981;49.104;11.396;2022-10-01T04:04:22;98267.66;;;6.51;98.63
48563;BME280;34981;49.104;11.396;2022-10-01T04:06:49;98271.53;;;6.49;98.64
48563;BME280;34981;49.104;11.396;2022-10-01T04:09:16;98277.91;;;6.48;98.63
48563;BME280;34981;49.104;11.396;2022-10-01T04:11:43;98259.38;;;6.46;98.64
48563;BME280;34981;49.104;11.396;2022-10-01T04:14:11;98260.56;;;6.44;98.62
48563;BME280;34981;49.104;11.396;2022-10-01T04:16:38;98260.56;;;6.44;98.62
48563;BME280;34981;49.104;11.396;2022-10-01T04:19:05;98269.63;;;6.43;98.63
48563;BME280;34981;49.104;11.396;2022-10-01T04:21:32;98259.94;;;6.42;98.64
48563;BME280;34981;49.104;11.396;2022-10-01T04:24:00;98260.97;;;6.41;98.65
48563;BME280;34981;49.104;11.396;2022-10-01T04:26:28;98262.97;;;6.39;98.63
48563;BME280;34981;49.104;11.396;2022-10-01T04:28:55;98269.97;;;6.40;98.65
48563;BME280;34981;49.104;11.396;2022-10-01T04:31:23;98258.66;;;6.38;98.66
48563;BME280;34981;49.104;11.396;2022-10-01T04:33:54;98259.66;;;6.37;98.64
48563;BME280;34981;49.104;11.396;2022-10-01T04:36:22;98257.63;;;6.39;98.65
48563;BME280;34981;49.104;11.396;2022-10-01T04:38:50;98261.97;;;6.40;98.65
48563;BME280;34981;49.104;11.396;2022-10-01T04:41:17;98265.66;;;6.39;98.65
48563;BME280;34981;49.104;11.396;2022-10-01T04:43:45;98266.66;;;6.38;98.66
48563;BME280;34981;49.104;11.396;2022-10-01T04:46:12;98282.69;;;6.38;98.66
48563;BME280;34981;49.104;11.396;2022-10-01T04:48:40;98288.88;;;6.38;98.67
48563;BME280;34981;49.104;11.396;2022-10-01T04:51:07;98287.38;;;6.36;98.67
48563;BME280;34981;49.104;11.396;2022-10-01T04:53:34;98291.28;;;6.33;98.66
48563;BME280;34981;49.104;11.396;2022-10-01T04:56:01;98283.44;;;6.32;98.64
48563;BME280;34981;49.104;11.396;2022-10-01T04:58:28;98282.78;;;6.30;98.66
48563;BME280;34981;49.104;11.396;2022-10-01T05:00:56;98291.81;;;6.29;98.65
48563;BME280;34981;49.104;11.396;2022-10-01T05:03:27;98287.50;;;6.28;98.66
48563;BME280;34981;49.104;11.396;2022-10-01T05:05:55;98292.00;;;6.27;98.66
48563;BME280;34981;49.104;11.396;2022-10-01T05:08:22;98294.13;;;6.32;98.65
48563;BME280;34981;49.104;11.396;2022-10-01T05:10:49;98285.47;;;6.30;98.67
48563;BME280;34981;49.104;11.396;2022-10-01T05:13:16;98290.81;;;6.30;98.67
48563;BME280;34981;49.104;11.396;2022-10-01T05:15:43;98278.44;;;6.29;98.67
48563;BME280;34981;49.104;11.396;2022-10-01T05:18:10;98282.78;;;6.30;98.67
48563;BME280;34981;49.104;11.396;2022-10-01T05:20:37;98292.84;;;6.28;98.68
48563;BME280;34981;49.104;11.396;2022-10-01T05:23:04;98298.19;;;6.28;98.67
48563;BME280;34981;49.104;11.396;2022-10-01T05:25:32;98295.69;;;6.26;98.66
48563;BME280;34981;49.104;11.396;2022-10-01T05:27:59;98301.03;;;6.26;98.64
48563;BME280;34981;49.104;11.396;2022-10-01T05:30:31;98295.88;;;6.24;98.66
48563;BME280;34981;49.104;11.396;2022-10-01T05:33:00;98307.38;;;6.25;98.66
48563;BME280;34981;49.104;11.396;2022-10-01T05:35:27;98313.38;;;6.27;98.68
48563;BME280;34981;49.104;11.396;2022-10-01T05:37:55;98307.84;;;6.29;98.66
48563;BME280;34981;49.104;11.396;2022-10-01T05:40:23;98301.47;;;6.30;98.68
48563;BME280;34981;49.104;11.396;2022-10-01T05:42:54;98318.63;;;6.35;98.70
48563;BME280;34981;49.104;11.396;2022-10-01T05:45:21;98317.31;;;6.46;98.72
48563;BME280;34981;49.104;11.396;2022-10-01T05:47:59;98330.13;;;6.50;98.74
48563;BME280;34981;49.104;11.396;2022-10-01T05:50:27;98324.59;;;6.52;98.75
48563;BME280;34981;49.104;11.396;2022-10-01T05:52:56;98339.63;;;6.53;98.77
48563;BME280;34981;49.104;11.396;2022-10-01T05:55:23;98343.78;;;6.55;98.75
48563;BME280;34981;49.104;11.396;2022-10-01T05:57:54;98342.94;;;6.55;98.76
48563;BME280;34981;49.104;11.396;2022-10-01T06:00:22;98344.59;;;6.56;98.77
48563;BME280;34981;49.104;11.396;2022-10-01T06:02:49;98355.28;;;6.56;98.77
48563;BME280;34981;49.104;11.396;2022-10-01T06:05:18;98361.47;;;6.56;98.78
48563;BME280;34981;49.104;11.396;2022-10-01T06:07:45;98357.13;;;6.55;98.77
48563;BME280;34981;49.104;11.396;2022-10-01T06:10:13;98367.63;;;6.57;98.77
48563;BME280;34981;49.104;11.396;2022-10-01T06:12:40;98376.28;;;6.59;98.79
48563;BME280;34981;49.104;11.396;2022-10-01T06:15:09;98375.28;;;6.60;98.79
48563;BME280;34981;49.104;11.396;2022-10-01T06:17:36;98376.94;;;6.61;98.80
48563;BME280;34981;49.104;11.396;2022-10-01T06:20:10;98381.28;;;6.62;98.81
48563;BME280;34981;49.104;11.396;2022-10-01T06:22:39;98383.09;;;6.61;98.81
48563;BME280;34981;49.104;11.396;2022-10-01T06:25:06;98398.97;;;6.63;98.81
48563;BME280;34981;49.104;11.396;2022-10-01T06:27:34;98405.16;;;6.63;98.83
48563;BME280;34981;49.104;11.396;2022-10-01T06:30:01;98402.25;;;6.65;98.85
48563;BME280;34981;49.104;11.396;2022-10-01T06:32:28;98396.56;;;6.68;98.83
48563;BME280;34981;49.104;11.396;2022-10-01T06:35:01;98404.22;;;6.71;98.84
48563;BME280;34981;49.104;11.396;2022-10-01T06:37:28;98398.47;;;6.74;98.86
48563;BME280;34981;49.104;11.396;2022-10-01T06:39:55;98442.75;;;6.77;98.87
48563;BME280;34981;49.104;11.396;2022-10-01T06:42:22;98443.56;;;6.77;98.86
48563;BME280;34981;49.104;11.396;2022-10-01T06:44:49;98451.41;;;6.79;98.87
48563;BME280;34981;49.104;11.396;2022-10-01T06:47:17;98440.72;;;6.79;98.90
48563;BME280;34981;49.104;11.396;2022-10-01T06:49:44;98443.19;;;6.80;98.88
48563;BME280;34981;49.104;11.396;2022-10-01T06:52:15;98447.34;;;6.83;98.88
48563;BME280;34981;49.104;11.396;2022-10-01T06:55:00;98450.66;;;6.85;98.88
48563;BME280;34981;49.104;11.396;2022-10-01T06:57:28;98453.97;;;6.87;98.91
48563;BME280;34981;49.104;11.396;2022-10-01T06:59:56;98464.47;;;6.88;98.91
48563;BME280;34981;49.104;11.396;2022-10-01T07:02:25;98465.31;;;6.89;98.90
48563;BME280;34981;49.104;11.396;2022-10-01T07:04:55;98472.16;;;6.91;98.93
48563;BME280;34981;49.104;11.396;2022-10-01T07:07:32;98483.69;;;6.92;98.93
48563;BME280;34981;49.104;11.396;2022-10-01T07:10:00;98474.44;;;6.94;98.92
48563;BME280;34981;49.104;11.396;2022-10-01T07:12:28;98480.44;;;6.96;98.92
48563;BME280;34981;49.104;11.396;2022-10-01T07:14:55;98484.22;;;7.02;98.94
48563;BME280;34981;49.104;11.396;2022-10-01T07:17:22;98492.53;;;7.07;98.95
48563;BME280;34981;49.104;11.396;2022-10-01T07:19:49;98495.47;;;7.12;98.98
48563;BME280;34981;49.104;11.396;2022-10-01T07:22:16;98510.59;;;7.20;98.98
48563;BME280;34981;49.104;11.396;2022-10-01T07:24:45;98517.88;;;7.26;98.99
48563;BME280;34981;49.104;11.396;2022-10-01T07:27:12;98528.13;;;7.37;99.03
48563;BME280;34981;49.104;11.396;2022-10-01T07:29:40;98538.06;;;7.43;99.04
48563;BME280;34981;49.104;11.396;2022-10-01T07:32:10;98548.69;;;7.51;99.06
48563;BME280;34981;49.104;11.396;2022-10-01T07:34:38;98543.94;;;7.53;99.06
48563;BME280;34981;49.104;11.396;2022-10-01T07:37:07;98542.09;;;7.54;99.06
48563;BME280;34981;49.104;11.396;2022-10-01T07:39:35;98547.09;;;7.57;99.08
48563;BME280;34981;49.104;11.396;2022-10-01T07:42:02;98538.88;;;7.58;99.07
48563;BME280;34981;49.104;11.396;2022-10-01T07:44:30;98543.22;;;7.59;99.07
48563;BME280;34981;49.104;11.396;2022-10-01T07:46:57;98535.19;;;7.59;99.07
48563;BME280;34981;49.104;11.396;2022-10-01T07:49:24;98518.09;;;7.60;99.07
48563;BME280;34981;49.104;11.396;2022-10-01T07:51:52;98506.38;;;7.61;99.09
48563;BME280;34981;49.104;11.396;2022-10-01T07:54:20;98492.63;;;7.64;99.08
48563;BME280;34981;49.104;11.396;2022-10-01T07:56:48;98418.31;;;7.66;99.09
48563;BME280;34981;49.104;11.396;2022-10-01T07:59:16;98420.16;;;7.66;99.07
48563;BME280;34981;49.104;11.396;2022-10-01T08:01:46;98403.25;;;7.65;99.07
48563;BME280;34981;49.104;11.396;2022-10-01T08:04:13;98383.28;;;7.68;99.09
48563;BME280;34981;49.104;11.396;2022-10-01T08:06:59;98382.28;;;7.69;99.09
48563;BME280;34981;49.104;11.396;2022-10-01T08:09:26;98383.75;;;7.71;99.08
48563;BME280;34981;49.104;11.396;2022-10-01T08:11:53;98385.41;;;7.72;99.09
48563;BME280;34981;49.104;11.396;2022-10-01T08:14:20;98374.28;;;7.75;99.11
48563;BME280;34981;49.104;11.396;2022-10-01T08:16:47;98369.78;;;7.76;99.11
48563;BME280;34981;49.104;11.396;2022-10-01T08:19:15;98368.56;;;7.78;99.10
48563;BME280;34981;49.104;11.396;2022-10-01T08:21:42;98361.19;;;7.80;99.10
48563;BME280;34981;49.104;11.396;2022-10-01T08:24:09;98358.28;;;7.82;99.11
48563;BME280;34981;49.104;11.396;2022-10-01T08:26:36;98357.09;;;7.85;99.09
48563;BME280;34981;49.104;11.396;2022-10-01T08:29:03;98365.75;;;7.87;99.11
48563;BME280;34981;49.104;11.396;2022-10-01T08:31:30;98359.38;;;7.88;99.10
48563;BME280;34981;49.104;11.396;2022-10-01T08:33:58;98357.31;;;7.90;99.12
48563;BME280;34981;49.104;11.396;2022-10-01T08:36:25;98364.34;;;7.91;99.12
48563;BME280;34981;49.104;11.396;2022-10-01T08:38:52;98363.31;;;7.92;99.11
48563;BME280;34981;49.104;11.396;2022-10-01T08:43:49;98361.94;;;7.96;99.13
48563;BME280;34981;49.104;11.396;2022-10-01T08:46:18;98369.97;;;7.96;99.13
48563;BME280;34981;49.104;11.396;2022-10-01T08:49:05;98357.00;;;7.99;99.13
48563;BME280;34981;49.104;11.396;2022-10-01T08:56:35;98369.78;;;8.04;99.13
48563;BME280;34981;49.104;11.396;2022-10-01T09:01:41;98356.03;;;8.07;99.13
48563;BME280;34981;49.104;11.396;2022-10-01T09:04:09;98361.84;;;8.10;99.14
48563;BME280;34981;49.104;11.396;2022-10-01T09:06:37;98362.63;;;8.11;99.13
48563;BME280;34981;49.104;11.396;2022-10-01T09:17:13;98367.44;;;8.15;99.15
48563;BME280;34981;49.104;11.396;2022-10-01T09:20:00;98369.09;;;8.16;99.15
48563;BME280;34981;49.104;11.396;2022-10-01T09:22:37;98363.53;;;8.18;99.16
48563;BME280;34981;49.104;11.396;2022-10-01T09:27:35;98359.38;;;8.15;99.15
48563;BME280;34981;49.104;11.396;2022-10-01T09:30:05;98364.56;;;8.17;99.16
48563;BME280;34981;49.104;11.396;2022-10-01T09:32:44;98359.81;;;8.19;99.16
48563;BME280;34981;49.104;11.396;2022-10-01T09:43:02;98376.16;;;8.24;99.16
48563;BME280;34981;49.104;11.396;2022-10-01T09:45:29;98380.88;;;8.22;99.17
48563;BME280;34981;49.104;11.396;2022-10-01T09:47:59;98373.84;;;8.21;99.18
48563;BME280;34981;49.104;11.396;2022-10-01T09:50:37;98367.28;;;8.24;99.17
48563;BME280;34981;49.104;11.396;2022-10-01T09:53:09;98366.44;;;8.23;99.16
48563;BME280;34981;49.104;11.396;2022-10-01T09:55:39;98371.81;;;8.23;99.17
48563;BME280;34981;49.104;11.396;2022-10-01T09:58:10;98363.13;;;8.21;99.18
48563;BME280;34981;49.104;11.396;2022-10-01T10:00:38;98356.75;;;8.22;99.14
48563;BME280;34981;49.104;11.396;2022-10-01T10:03:06;98351.78;;;8.19;99.16
48563;BME280;34981;49.104;11.396;2022-10-01T10:05:43;98353.63;;;8.18;99.16
48563;BME280;34981;49.104;11.396;2022-10-01T10:08:19;98365.81;;;8.21;99.17
48563;BME280;34981;49.104;11.396;2022-10-01T10:10:50;98372.38;;;8.18;99.16
48563;BME280;34981;49.104;11.396;2022-10-01T10:13:19;98362.50;;;8.19;99.17
48563;BME280;34981;49.104;11.396;2022-10-01T10:15:52;98354.44;;;8.19;99.17
48563;BME280;34981;49.104;11.396;2022-10-01T10:18:23;98335.69;;;8.19;99.16
48563;BME280;34981;49.104;11.396;2022-10-01T10:20:53;98337.34;;;8.20;99.16
48563;BME280;34981;49.104;11.396;2022-10-01T10:23:22;98335.69;;;8.19;99.16
48563;BME280;34981;49.104;11.396;2022-10-01T10:25:55;98328.72;;;8.18;99.17
48563;BME280;34981;49.104;11.396;2022-10-01T10:28:25;98324.38;;;8.17;99.16
48563;BME280;34981;49.104;11.396;2022-10-01T10:30:54;98324.97;;;8.19;99.17
48563;BME280;34981;49.104;11.396;2022-10-01T10:33:22;98313.44;;;8.18;99.16
48563;BME280;34981;49.104;11.396;2022-10-01T10:36:03;98312.00;;;8.16;99.14
48563;BME280;34981;49.104;11.396;2022-10-01T10:38:31;98313.00;;;8.15;99.16
48563;BME280;34981;49.104;11.396;2022-10-01T10:40:59;98307.84;;;8.13;99.17
48563;BME280;34981;49.104;11.396;2022-10-01T10:43:27;98309.31;;;8.16;99.18
48563;BME280;34981;49.104;11.396;2022-10-01T10:45:56;98308.28;;;8.17;99.20
48563;BME280;34981;49.104;11.396;2022-10-01T10:48:25;98313.66;;;8.17;99.19
48563;BME280;34981;49.104;11.396;2022-10-01T10:50:58;98291.19;;;8.18;99.20
48563;BME280;34981;49.104;11.396;2022-10-01T10:53:27;98296.56;;;8.18;99.20
48563;BME280;34981;49.104;11.396;2022-10-01T10:55:57;98299.00;;;8.19;99.20
48563;BME280;34981;49.104;11.396;2022-10-01T10:58:28;98294.50;;;8.20;99.21
48563;BME280;34981;49.104;11.396;2022-10-01T11:01:05;98280.47;;;8.18;99.20
48563;BME280;34981;49.104;11.396;2022-10-01T11:03:36;98282.94;;;8.19;99.21
48563;BME280;34981;49.104;11.396;2022-10-01T11:06:10;98265.00;;;8.20;99.20
48563;BME280;34981;49.104;11.396;2022-10-01T11:08:38;98248.56;;;8.23;99.20
48563;BME280;34981;49.104;11.396;2022-10-01T11:13:57;98232.06;;;8.26;99.21
48563;BME280;34981;49.104;11.396;2022-10-01T11:22:01;98243.84;;;8.25;99.20
48563;BME280;34981;49.104;11.396;2022-10-01T11:27:21;98256.88;;;8.35;99.23
48563;BME280;34981;49.104;11.396;2022-10-01T11:29:54;98262.03;;;8.36;99.24
48563;BME280;34981;49.104;11.396;2022-10-01T11:32:33;98258.16;;;8.39;99.24
48563;BME280;34981;49.104;11.396;2022-10-01T11:40:41;98267.63;;;8.41;99.25
48563;BME280;34981;49.104;11.396;2022-10-01T11:43:20;98249.69;;;8.42;99.25
48563;BME280;34981;49.104;11.396;2022-10-01T11:45:55;98265.16;;;8.40;99.24
48563;BME280;34981;49.104;11.396;2022-10-01T11:48:29;98254.84;;;8.43;99.25
48563;BME280;34981;49.104;11.396;2022-10-01T11:51:00;98268.91;;;8.45;99.24
48563;BME280;34981;49.104;11.396;2022-10-01T11:53:31;98275.91;;;8.46;99.26
48563;BME280;34981;49.104;11.396;2022-10-01T11:56:01;98300.66;;;8.48;99.24
48563;BME280;34981;49.104;11.396;2022-10-01T11:58:58;98262.09;;;8.49;99.26
48563;BME280;34981;49.104;11.396;2022-10-01T12:04:05;98278.19;;;8.49;99.24
48563;BME280;34981;49.104;11.396;2022-10-01T12:06:56;98315.50;;;8.51;99.25
48563;BME280;34981;49.104;11.396;2022-10-01T12:09:36;98329.38;;;8.54;99.26
48563;BME280;34981;49.104;11.396;2022-10-01T12:12:12;98318.41;;;8.56;99.24
48563;BME280;34981;49.104;11.396;2022-10-01T12:14:42;98349.78;;;8.62;99.27
48563;BME280;34981;49.104;11.396;2022-10-01T12:19:40;98339.13;;;8.69;99.27
48563;BME280;34981;49.104;11.396;2022-10-01T12:22:13;98342.03;;;8.74;99.30
48563;BME280;34981;49.104;11.396;2022-10-01T12:24:42;98362.28;;;8.83;99.31
48563;BME280;34981;49.104;11.396;2022-10-01T12:27:16;98359.19;;;8.86;99.32
48563;BME280;34981;49.104;11.396;2022-10-01T12:30:08;98374.28;;;8.93;99.34
48563;BME280;34981;49.104;11.396;2022-10-01T12:38:14;98379.94;;;9.05;99.33
48563;BME280;34981;49.104;11.396;2022-10-01T12:46:21;98394.22;;;9.19;99.37
48563;BME280;34981;49.104;11.396;2022-10-01T12:48:57;98394.63;;;9.22;99.37
48563;BME280;34981;49.104;11.396;2022-10-01T12:59:36;98367.19;;;9.20;99.36
48563;BME280;34981;49.104;11.396;2022-10-01T13:10:58;98356.66;;;9.25;99.36
48563;BME280;34981;49.104;11.396;2022-10-01T13:13:05;98351.69;;;9.29;99.35
48563;BME280;34981;49.104;11.396;2022-10-01T13:15:37;98350.47;;;9.25;99.36
48563;BME280;34981;49.104;11.396;2022-10-01T13:21:03;98334.75;;;9.22;99.34
48563;BME280;34981;49.104;11.396;2022-10-01T13:26:46;98321.34;;;9.28;99.34
48563;BME280;34981;49.104;11.396;2022-10-01T13:34:20;98320.31;;;9.29;99.34
48563;BME280;34981;49.104;11.396;2022-10-01T13:36:50;98311.25;;;9.30;99.34
48563;BME280;34981;49.104;11.396;2022-10-01T13:39:21;98308.56;;;9.30;99.36
48563;BME280;34981;49.104;11.396;2022-10-01T13:41:54;98306.06;;;9.29;99.34
48563;BME280;34981;49.104;11.396;2022-10-01T13:44:32;98307.94;;;9.28;99.33
48563;BME280;34981;49.104;11.396;2022-10-01T13:49:27;98318.28;;;9.31;99.35
48563;BME280;34981;49.104;11.396;2022-10-01T13:51:56;98323.66;;;9.31;99.33
48563;BME280;34981;49.104;11.396;2022-10-01T13:54:25;98330.03;;;9.30;99.34
48563;BME280;34981;49.104;11.396;2022-10-01T13:56:54;98338.28;;;9.29;99.35
48563;BME280;34981;49.104;11.396;2022-10-01T13:59:26;98334.38;;;9.31;99.33
48563;BME280;34981;49.104;11.396;2022-10-01T14:01:56;98350.09;;;9.34;99.35
48563;BME280;34981;49.104;11.396;2022-10-01T14:04:39;98346.34;;;9.35;99.34
48563;BME280;34981;49.104;11.396;2022-10-01T14:07:13;98309.59;;;9.36;99.36
48563;BME280;34981;49.104;11.396;2022-10-01T14:09:42;98302.59;;;9.35;99.35
48563;BME280;34981;49.104;11.396;2022-10-01T14:12:19;98307.75;;;9.36;99.35
48563;BME280;34981;49.104;11.396;2022-10-01T14:15:18;98301.78;;;9.34;99.34
48563;BME280;34981;49.104;11.396;2022-10-01T14:18:24;98303.41;;;9.35;99.33
48563;BME280;34981;49.104;11.396;2022-10-01T14:24:11;98312.50;;;9.34;99.35
48563;BME280;34981;49.104;11.396;2022-10-01T14:26:38;98312.72;;;9.33;99.34
48563;BME280;34981;49.104;11.396;2022-10-01T14:31:57;98297.22;;;9.35;99.34
48563;BME280;34981;49.104;11.396;2022-10-01T14:37:13;98290.59;;;9.37;99.34
48563;BME280;34981;49.104;11.396;2022-10-01T14:39:43;98295.97;;;9.37;99.34
48563;BME280;34981;49.104;11.396;2022-10-01T14:42:16;98295.59;;;9.41;99.34
48563;BME280;34981;49.104;11.396;2022-10-01T14:44:44;98296.59;;;9.40;99.34
48563;BME280;34981;49.104;11.396;2022-10-01T14:49:45;98291.44;;;9.45;99.36
48563;BME280;34981;49.104;11.396;2022-10-01T14:54:50;98277.41;;;9.49;99.35
48563;BME280;34981;49.104;11.396;2022-10-01T14:57:25;98279.03;;;9.50;99.35
48563;BME280;34981;49.104;11.396;2022-10-01T14:59:53;98283.19;;;9.53;99.37
48563;BME280;34981;49.104;11.396;2022-10-01T15:02:22;98287.72;;;9.52;99.37
48563;BME280;34981;49.104;11.396;2022-10-01T15:04:51;98300.56;;;9.57;99.38
48563;BME280;34981;49.104;11.396;2022-10-01T15:07:19;98291.03;;;9.61;99.39
48563;BME280;34981;49.104;11.396;2022-10-01T15:09:46;98281.97;;;9.62;99.38
48563;BME280;34981;49.104;11.396;2022-10-01T15:12:14;98279.91;;;9.64;99.37
48563;BME280;34981;49.104;11.396;2022-10-01T15:14:42;98284.22;;;9.65;99.38
48563;BME280;34981;49.104;11.396;2022-10-01T15:17:14;98289.00;;;9.63;99.36